createdAt,value
2018-11-12T00:00:08.356Z,0.00
2018-11-12T00:01:08.495Z,0.00
2018-11-12T00:02:08.336Z,0.00
2018-11-12T00:03:08.326Z,0.00
2018-11-12T00:04:08.316Z,0.00
2018-11-12T00:05:08.312Z,0.00
2018-11-12T00:06:08.291Z,0.00
2018-11-12T00:07:08.596Z,0.00
2018-11-12T00:08:08.269Z,0.00
2018-11-12T00:09:08.260Z,0.00
2018-11-12T00:10:08.257Z,0.00
2018-11-12T00:11:08.239Z,0.00
2018-11-12T00:12:08.230Z,0.00
2018-11-12T00:13:08.525Z,0.00
2018-11-12T00:14:08.207Z,0.00
2018-11-12T00:15:08.197Z,0.00
2018-11-12T00:16:08.186Z,0.00
2018-11-12T00:17:08.176Z,0.00
2018-11-12T00:18:08.164Z,0.00
2018-11-12T00:19:08.250Z,0.00
2018-11-12T00:20:08.143Z,0.00
2018-11-12T00:21:08.134Z,0.00
2018-11-12T00:22:08.123Z,0.00
2018-11-12T00:23:08.124Z,0.00
2018-11-12T00:24:08.103Z,0.00
2018-11-12T00:25:08.307Z,0.00
2018-11-12T00:26:08.078Z,0.00
2018-11-12T00:27:08.067Z,0.00
2018-11-12T00:28:08.072Z,0.00
2018-11-12T00:29:08.050Z,0.00
2018-11-12T00:30:08.035Z,0.00
2018-11-12T00:31:08.132Z,0.00
2018-11-12T00:32:08.014Z,0.00
2018-11-12T00:33:08.008Z,0.00
2018-11-12T00:34:07.992Z,0.00
2018-11-12T00:35:07.985Z,0.00
2018-11-12T00:36:07.973Z,0.00
2018-11-12T00:37:08.088Z,0.00
2018-11-12T00:38:07.951Z,0.00
2018-11-12T00:39:07.944Z,0.00
2018-11-12T00:40:07.931Z,0.00
2018-11-12T00:41:07.918Z,0.00
2018-11-12T00:42:07.909Z,0.00
2018-11-12T00:43:08.108Z,0.00
2018-11-12T00:44:07.891Z,0.00
2018-11-12T00:45:07.881Z,0.00
2018-11-12T00:46:07.865Z,0.00
2018-11-12T00:47:07.861Z,0.00
2018-11-12T00:48:07.844Z,0.00
2018-11-12T00:49:07.939Z,0.00
2018-11-12T00:50:07.823Z,0.00
2018-11-12T00:51:07.814Z,0.00
2018-11-12T00:52:07.802Z,0.00
2018-11-12T00:53:07.790Z,0.00
2018-11-12T00:54:07.781Z,0.00
2018-11-12T00:55:07.913Z,0.00
2018-11-12T00:56:07.759Z,0.00
2018-11-12T00:57:07.748Z,0.00
2018-11-12T00:58:07.739Z,0.00
2018-11-12T00:59:07.728Z,0.00
2018-11-12T01:00:07.715Z,0.00
2018-11-12T01:01:08.044Z,0.00
2018-11-12T01:02:07.694Z,0.00
2018-11-12T01:03:07.687Z,0.00
2018-11-12T01:04:07.762Z,0.00
2018-11-12T01:05:07.663Z,0.00
2018-11-12T01:06:07.652Z,0.00
2018-11-12T01:07:07.960Z,0.00
2018-11-12T01:08:07.642Z,0.00
2018-11-12T01:09:07.618Z,0.00
2018-11-12T01:10:07.610Z,0.00
2018-11-12T01:11:07.599Z,0.00
2018-11-12T01:12:07.587Z,0.00
2018-11-12T01:13:07.670Z,0.00
2018-11-12T01:14:07.571Z,0.00
2018-11-12T01:15:07.559Z,0.00
2018-11-12T01:16:07.612Z,0.00
2018-11-12T01:17:07.533Z,0.00
2018-11-12T01:18:07.523Z,0.00
2018-11-12T01:19:07.609Z,0.00
2018-11-12T01:20:07.504Z,0.00
2018-11-12T01:21:07.492Z,0.00
2018-11-12T01:22:07.480Z,0.00
2018-11-12T01:23:07.470Z,0.00
2018-11-12T01:24:07.461Z,0.00
2018-11-12T01:25:07.800Z,0.00
2018-11-12T01:26:07.438Z,0.00
2018-11-12T01:27:07.429Z,0.00
2018-11-12T01:28:07.419Z,0.00
2018-11-12T01:29:07.408Z,0.00
2018-11-12T01:30:07.396Z,0.00
2018-11-12T01:31:07.598Z,0.00
2018-11-12T01:32:07.378Z,0.00
2018-11-12T01:33:07.410Z,0.00
2018-11-12T01:34:07.354Z,0.00
2018-11-12T01:35:07.342Z,0.00
2018-11-12T01:36:07.330Z,0.00
2018-11-12T01:37:07.427Z,0.00
2018-11-12T01:38:07.308Z,0.00
2018-11-12T01:39:07.299Z,0.00
2018-11-12T01:40:07.288Z,0.00
2018-11-12T01:41:07.277Z,0.00
2018-11-12T01:42:07.332Z,0.00
2018-11-12T01:43:07.353Z,0.00
2018-11-12T01:44:07.248Z,0.00
2018-11-12T01:45:07.235Z,0.00
2018-11-12T01:46:07.223Z,0.00
2018-11-12T01:47:07.212Z,0.00
2018-11-12T01:48:07.204Z,0.00
2018-11-12T01:49:07.446Z,0.00
2018-11-12T01:50:07.182Z,0.00
2018-11-12T01:51:07.170Z,0.00
2018-11-12T01:52:07.165Z,0.00
2018-11-12T01:53:07.149Z,0.00
2018-11-12T01:54:07.139Z,0.00
2018-11-12T01:55:07.232Z,0.00
2018-11-12T01:56:07.123Z,0.00
2018-11-12T01:57:07.106Z,0.00
2018-11-12T01:58:07.096Z,0.00
2018-11-12T01:59:07.085Z,0.00
2018-11-12T02:00:07.075Z,0.00
2018-11-12T02:01:07.170Z,0.00
2018-11-12T02:02:07.052Z,0.00
2018-11-12T02:03:07.054Z,0.00
2018-11-12T02:04:07.034Z,0.00
2018-11-12T02:05:07.024Z,0.00
2018-11-12T02:06:07.010Z,0.00
2018-11-12T02:07:07.215Z,0.00
2018-11-12T02:08:06.989Z,0.00
2018-11-12T02:09:07.095Z,0.00
2018-11-12T02:10:06.981Z,0.00
2018-11-12T02:11:06.956Z,0.00
2018-11-12T02:12:06.945Z,0.00
2018-11-12T02:13:07.041Z,0.00
2018-11-12T02:14:06.924Z,0.00
2018-11-12T02:15:06.911Z,0.00
2018-11-12T02:16:06.939Z,0.00
2018-11-12T02:17:06.892Z,0.00
2018-11-12T02:18:06.880Z,0.00
2018-11-12T02:19:06.970Z,0.00
2018-11-12T02:20:06.858Z,0.00
2018-11-12T02:21:06.850Z,0.00
2018-11-12T02:22:06.846Z,0.00
2018-11-12T02:23:06.830Z,0.00
2018-11-12T02:24:06.815Z,0.00
2018-11-12T02:25:07.109Z,0.00
2018-11-12T02:26:06.796Z,0.00
2018-11-12T02:27:06.785Z,0.00
2018-11-12T02:28:06.773Z,0.00
2018-11-12T02:29:06.766Z,0.00
2018-11-12T02:30:06.757Z,0.00
2018-11-12T02:31:06.854Z,0.00
2018-11-12T02:32:06.731Z,0.00
2018-11-12T02:33:06.838Z,0.00
2018-11-12T02:34:06.709Z,0.00
2018-11-12T02:35:06.699Z,0.00
2018-11-12T02:36:06.687Z,0.00
2018-11-12T02:37:06.772Z,0.00
2018-11-12T02:38:06.667Z,0.00
2018-11-12T02:39:06.656Z,0.00
2018-11-12T02:40:06.647Z,0.00
2018-11-12T02:41:06.635Z,0.00
2018-11-12T02:42:06.624Z,0.00
2018-11-12T02:43:06.881Z,0.00
2018-11-12T02:44:06.603Z,0.00
2018-11-12T02:45:06.591Z,0.00
2018-11-12T02:46:06.588Z,0.00
2018-11-12T02:47:06.570Z,0.00
2018-11-12T02:48:06.561Z,0.00
2018-11-12T02:49:06.653Z,0.00
2018-11-12T02:50:06.539Z,0.00
2018-11-12T02:51:06.527Z,0.00
2018-11-12T02:52:06.516Z,0.00
2018-11-12T02:53:06.508Z,0.00
2018-11-12T02:54:06.496Z,0.00
2018-11-12T02:55:06.594Z,0.00
2018-11-12T02:56:06.474Z,0.00
2018-11-12T02:57:06.463Z,0.00
2018-11-12T02:58:06.455Z,0.00
2018-11-12T02:59:06.441Z,0.00
2018-11-12T03:00:06.430Z,0.00
2018-11-12T03:01:06.529Z,0.00
2018-11-12T03:02:06.411Z,0.00
2018-11-12T03:03:06.402Z,0.00
2018-11-12T03:04:06.388Z,0.00
2018-11-12T03:05:06.376Z,0.00
2018-11-12T03:06:06.367Z,0.00
2018-11-12T03:07:06.452Z,0.00
2018-11-12T03:08:06.346Z,0.00
2018-11-12T03:09:06.336Z,0.00
2018-11-12T03:10:06.324Z,0.00
2018-11-12T03:11:06.316Z,0.00
2018-11-12T03:12:06.313Z,0.00
2018-11-12T03:13:06.405Z,0.00
2018-11-12T03:14:06.282Z,0.00
2018-11-12T03:15:06.271Z,0.00
2018-11-12T03:16:06.265Z,0.00
2018-11-12T03:17:06.249Z,0.00
2018-11-12T03:18:06.240Z,0.00
2018-11-12T03:19:06.540Z,0.00
2018-11-12T03:20:06.216Z,0.00
2018-11-12T03:21:06.206Z,0.00
2018-11-12T03:22:06.198Z,0.00
2018-11-12T03:23:06.193Z,0.00
2018-11-12T03:24:06.174Z,0.00
2018-11-12T03:25:06.294Z,0.00
2018-11-12T03:26:06.157Z,0.00
2018-11-12T03:27:06.142Z,0.00
2018-11-12T03:28:06.132Z,0.00
2018-11-12T03:29:06.121Z,0.00
2018-11-12T03:30:06.111Z,0.00
2018-11-12T03:31:06.206Z,0.00
2018-11-12T03:32:06.090Z,0.00
2018-11-12T03:33:06.078Z,0.00
2018-11-12T03:34:06.071Z,0.00
2018-11-12T03:35:06.062Z,0.00
2018-11-12T03:36:06.054Z,0.00
2018-11-12T03:37:06.479Z,0.00
2018-11-12T03:38:06.027Z,0.00
2018-11-12T03:39:06.013Z,0.00
2018-11-12T03:40:06.003Z,0.00
2018-11-12T03:41:05.992Z,0.00
2018-11-12T03:42:05.983Z,0.00
2018-11-12T03:43:06.098Z,0.00
2018-11-12T03:44:05.960Z,0.00
2018-11-12T03:45:05.951Z,0.00
2018-11-12T03:46:05.949Z,0.00
2018-11-12T03:47:05.933Z,0.00
2018-11-12T03:48:05.923Z,0.00
2018-11-12T03:49:06.004Z,0.00
2018-11-12T03:50:05.896Z,0.00
2018-11-12T03:51:05.887Z,4.00
2018-11-12T03:52:05.874Z,0.00
2018-11-12T03:53:05.867Z,0.00
2018-11-12T03:54:05.853Z,4.00
2018-11-12T03:55:05.952Z,0.00
2018-11-12T03:56:05.837Z,4.00
2018-11-12T03:57:05.825Z,4.00
2018-11-12T03:58:05.814Z,8.00
2018-11-12T03:59:05.799Z,8.00
2018-11-12T04:00:05.840Z,8.00
2018-11-12T04:01:06.044Z,8.00
2018-11-12T04:02:05.768Z,12.00
2018-11-12T04:03:05.764Z,12.00
2018-11-12T04:04:05.746Z,12.00
2018-11-12T04:05:05.736Z,16.00
2018-11-12T04:06:05.726Z,16.00
2018-11-12T04:07:05.823Z,20.00
2018-11-12T04:08:05.702Z,24.00
2018-11-12T04:09:05.692Z,24.00
2018-11-12T04:10:05.681Z,24.00
2018-11-12T04:11:05.676Z,32.00
2018-11-12T04:12:05.661Z,32.00
2018-11-12T04:13:05.747Z,36.00
2018-11-12T04:14:05.639Z,36.00
2018-11-12T04:15:05.632Z,40.00
2018-11-12T04:16:05.619Z,44.00
2018-11-12T04:17:05.606Z,44.00
2018-11-12T04:18:05.596Z,52.00
2018-11-12T04:19:05.784Z,52.00
2018-11-12T04:20:05.578Z,60.00
2018-11-12T04:21:05.579Z,64.00
2018-11-12T04:22:05.566Z,68.00
2018-11-12T04:23:05.546Z,76.00
2018-11-12T04:24:05.530Z,84.00
2018-11-12T04:25:05.736Z,92.00
2018-11-12T04:26:05.510Z,92.00
2018-11-12T04:27:05.499Z,100.00
2018-11-12T04:28:05.489Z,104.00
2018-11-12T04:29:05.478Z,108.00
2018-11-12T04:30:05.468Z,112.00
2018-11-12T04:31:05.554Z,116.00
2018-11-12T04:32:05.445Z,120.00
2018-11-12T04:33:05.435Z,124.00
2018-11-12T04:34:05.424Z,128.00
2018-11-12T04:35:05.421Z,132.00
2018-11-12T04:36:05.402Z,140.00
2018-11-12T04:37:05.607Z,144.00
2018-11-12T04:38:05.381Z,148.00
2018-11-12T04:39:05.370Z,152.00
2018-11-12T04:40:05.360Z,156.00
2018-11-12T04:41:05.348Z,168.00
2018-11-12T04:42:05.338Z,172.00
2018-11-12T04:43:05.433Z,172.00
2018-11-12T04:44:05.317Z,168.00
2018-11-12T04:45:05.307Z,168.00
2018-11-12T04:46:05.300Z,164.00
2018-11-12T04:47:05.287Z,168.00
2018-11-12T04:48:05.277Z,168.00
2018-11-12T04:49:05.526Z,172.00
2018-11-12T04:50:05.255Z,176.00
2018-11-12T04:51:05.241Z,184.00
2018-11-12T04:52:05.231Z,184.00
2018-11-12T04:53:05.228Z,188.00
2018-11-12T04:54:05.210Z,188.00
2018-11-12T04:55:05.373Z,184.00
2018-11-12T04:56:05.188Z,188.00
2018-11-12T04:57:05.177Z,188.00
2018-11-12T04:58:05.199Z,192.00
2018-11-12T04:59:05.164Z,200.00
2018-11-12T05:00:05.146Z,204.00
2018-11-12T05:01:05.383Z,212.00
2018-11-12T05:02:05.165Z,220.00
2018-11-12T05:03:05.117Z,236.00
2018-11-12T05:04:05.101Z,240.00
2018-11-12T05:05:05.091Z,236.00
2018-11-12T05:06:05.080Z,240.00
2018-11-12T05:07:05.176Z,240.00
2018-11-12T05:08:05.059Z,240.00
2018-11-12T05:09:05.050Z,248.00
2018-11-12T05:10:05.039Z,248.00
2018-11-12T05:11:05.028Z,256.00
2018-11-12T05:12:05.019Z,256.00
2018-11-12T05:13:05.130Z,264.00
2018-11-12T05:14:04.995Z,272.00
2018-11-12T05:15:04.984Z,272.00
2018-11-12T05:16:04.980Z,272.00
2018-11-12T05:17:04.964Z,276.00
2018-11-12T05:18:04.953Z,272.00
2018-11-12T05:19:05.153Z,284.00
2018-11-12T05:20:04.936Z,292.00
2018-11-12T05:21:04.920Z,300.00
2018-11-12T05:22:04.912Z,300.00
2018-11-12T05:23:04.898Z,304.00
2018-11-12T05:24:04.889Z,304.00
2018-11-12T05:25:04.980Z,304.00
2018-11-12T05:26:04.867Z,308.00
2018-11-12T05:27:04.858Z,308.00
2018-11-12T05:28:04.846Z,312.00
2018-11-12T05:29:04.836Z,316.00
2018-11-12T05:30:04.823Z,320.00
2018-11-12T05:31:05.111Z,320.00
2018-11-12T05:32:04.810Z,324.00
2018-11-12T05:33:04.791Z,324.00
2018-11-12T05:34:04.782Z,328.00
2018-11-12T05:35:04.780Z,332.00
2018-11-12T05:36:04.760Z,332.00
2018-11-12T05:37:04.845Z,332.00
2018-11-12T05:38:04.788Z,336.00
2018-11-12T05:39:04.728Z,340.00
2018-11-12T05:40:04.717Z,344.00
2018-11-12T05:41:04.707Z,348.00
2018-11-12T05:42:04.697Z,352.00
2018-11-12T05:43:04.780Z,352.00
2018-11-12T05:44:04.674Z,356.00
2018-11-12T05:45:04.754Z,360.00
2018-11-12T05:46:04.656Z,364.00
2018-11-12T05:47:04.644Z,372.00
2018-11-12T05:48:04.634Z,372.00
2018-11-12T05:49:04.956Z,376.00
2018-11-12T05:50:04.612Z,380.00
2018-11-12T05:51:04.600Z,380.00
2018-11-12T05:52:04.590Z,384.00
2018-11-12T05:53:04.584Z,384.00
2018-11-12T05:54:04.574Z,388.00
2018-11-12T05:55:04.805Z,392.00
2018-11-12T05:56:04.547Z,392.00
2018-11-12T05:57:04.538Z,400.00
2018-11-12T05:58:04.527Z,400.00
2018-11-12T05:59:04.581Z,400.00
2018-11-12T06:00:04.510Z,404.00
2018-11-12T06:01:04.601Z,404.00
2018-11-12T06:02:04.482Z,404.00
2018-11-12T06:03:04.476Z,408.00
2018-11-12T06:04:04.475Z,408.00
2018-11-12T06:05:04.451Z,408.00
2018-11-12T06:06:04.439Z,412.00
2018-11-12T06:07:04.531Z,416.00
2018-11-12T06:08:04.418Z,420.00
2018-11-12T06:09:04.410Z,424.00
2018-11-12T06:10:04.398Z,428.00
2018-11-12T06:11:04.386Z,428.00
2018-11-12T06:12:04.380Z,432.00
2018-11-12T06:13:05.415Z,432.00
2018-11-12T06:14:04.362Z,436.00
2018-11-12T06:15:04.346Z,432.00
2018-11-12T06:16:05.017Z,436.00
2018-11-12T06:17:04.330Z,440.00
2018-11-12T06:18:04.951Z,440.00
2018-11-12T06:19:04.607Z,440.00
2018-11-12T06:20:05.009Z,440.00
2018-11-12T06:21:04.283Z,444.00
2018-11-12T06:22:05.014Z,444.00
2018-11-12T06:23:04.267Z,444.00
2018-11-12T06:24:04.249Z,448.00
2018-11-12T06:25:04.345Z,448.00
2018-11-12T06:26:04.229Z,444.00
2018-11-12T06:27:04.218Z,456.00
2018-11-12T06:28:04.211Z,456.00
2018-11-12T06:29:04.930Z,452.00
2018-11-12T06:30:04.936Z,456.00
2018-11-12T06:31:04.879Z,464.00
2018-11-12T06:32:04.172Z,468.00
2018-11-12T06:33:04.154Z,464.00
2018-11-12T06:34:04.142Z,464.00
2018-11-12T06:35:04.131Z,468.00
2018-11-12T06:36:04.121Z,468.00
2018-11-12T06:37:04.209Z,468.00
2018-11-12T06:38:04.099Z,476.00
2018-11-12T06:39:04.089Z,476.00
2018-11-12T06:40:04.079Z,480.00
2018-11-12T06:41:04.071Z,484.00
2018-11-12T06:42:05.007Z,488.00
2018-11-12T06:43:04.206Z,488.00
2018-11-12T06:44:04.041Z,492.00
2018-11-12T06:45:04.028Z,496.00
2018-11-12T06:46:04.013Z,500.00
2018-11-12T06:47:04.004Z,508.00
2018-11-12T06:48:03.995Z,512.00
2018-11-12T06:49:04.196Z,520.00
2018-11-12T06:50:03.971Z,524.00
2018-11-12T06:51:03.962Z,528.00
2018-11-12T06:52:03.957Z,536.00
2018-11-12T06:53:03.980Z,984.00
2018-11-12T06:54:03.928Z,1020.00
2018-11-12T06:55:04.033Z,1040.00
2018-11-12T06:56:03.907Z,1064.00
2018-11-12T06:57:03.900Z,1084.00
2018-11-12T06:58:03.886Z,1124.00
2018-11-12T06:59:03.874Z,1160.00
2018-11-12T07:00:03.863Z,1168.00
2018-11-12T07:01:04.141Z,1212.00
2018-11-12T07:02:03.841Z,1216.00
2018-11-12T07:03:03.837Z,1244.00
2018-11-12T07:04:03.823Z,1272.00
2018-11-12T07:05:03.813Z,1308.00
2018-11-12T07:06:03.798Z,1344.00
2018-11-12T07:07:04.159Z,1376.00
2018-11-12T07:08:03.778Z,1392.00
2018-11-12T07:09:03.777Z,1444.00
2018-11-12T07:10:03.769Z,1452.00
2018-11-12T07:11:03.749Z,1492.00
2018-11-12T07:12:03.738Z,1524.00
2018-11-12T07:13:04.095Z,1520.00
2018-11-12T07:14:03.720Z,1576.00
2018-11-12T07:15:03.705Z,1632.00
2018-11-12T07:16:03.695Z,1628.00
2018-11-12T07:17:03.682Z,1640.00
2018-11-12T07:18:03.681Z,1652.00
2018-11-12T07:19:03.899Z,1656.00
2018-11-12T07:20:03.668Z,1664.00
2018-11-12T07:21:03.658Z,1668.00
2018-11-12T07:22:03.645Z,1672.00
2018-11-12T07:23:03.636Z,1664.00
2018-11-12T07:24:03.624Z,1664.00
2018-11-12T07:25:03.772Z,1696.00
2018-11-12T07:26:03.603Z,1704.00
2018-11-12T07:27:03.594Z,1708.00
2018-11-12T07:28:03.585Z,1788.00
2018-11-12T07:29:03.572Z,1812.00
2018-11-12T07:30:03.565Z,1824.00
2018-11-12T07:31:03.773Z,1860.00
2018-11-12T07:32:03.539Z,1880.00
2018-11-12T07:33:03.533Z,1888.00
2018-11-12T07:34:03.526Z,1892.00
2018-11-12T07:35:03.510Z,1908.00
2018-11-12T07:36:03.502Z,1956.00
2018-11-12T07:37:03.602Z,1964.00
2018-11-12T07:38:03.482Z,1900.00
2018-11-12T07:39:03.472Z,1864.00
2018-11-12T07:40:03.441Z,1828.00
2018-11-12T07:41:03.431Z,1808.00
2018-11-12T07:42:03.548Z,1784.00
2018-11-12T07:43:03.507Z,1788.00
2018-11-12T07:44:03.395Z,1796.00
2018-11-12T07:45:03.401Z,1840.00
2018-11-12T07:46:03.417Z,1860.00
2018-11-12T07:47:03.379Z,1856.00
2018-11-12T07:48:03.367Z,1904.00
2018-11-12T07:49:03.550Z,1932.00
2018-11-12T07:50:03.331Z,1964.00
2018-11-12T07:51:03.321Z,2020.00
2018-11-12T07:52:03.316Z,2024.00
2018-11-12T07:53:03.316Z,2088.00
2018-11-12T07:54:03.304Z,2148.00
2018-11-12T07:55:03.435Z,2196.00
2018-11-12T07:56:03.301Z,2220.00
2018-11-12T07:57:03.256Z,2232.00
2018-11-12T07:58:03.246Z,2076.00
2018-11-12T07:59:03.236Z,2216.00
2018-11-12T08:00:03.228Z,2228.00
2018-11-12T08:01:03.962Z,2204.00
2018-11-12T08:02:03.219Z,2232.00
2018-11-12T08:03:03.297Z,2260.00
2018-11-12T08:04:03.179Z,2304.00
2018-11-12T08:05:03.170Z,2380.00
2018-11-12T08:06:03.158Z,2484.00
2018-11-12T08:07:03.442Z,2536.00
2018-11-12T08:08:03.163Z,2620.00
2018-11-12T08:09:03.229Z,2796.00
2018-11-12T08:10:03.131Z,2816.00
2018-11-12T08:11:03.123Z,2776.00
2018-11-12T08:12:03.175Z,2828.00
2018-11-12T08:13:03.349Z,2736.00
2018-11-12T08:14:03.089Z,2700.00
2018-11-12T08:15:03.090Z,2708.00
2018-11-12T08:16:03.051Z,2680.00
2018-11-12T08:17:03.046Z,2660.00
2018-11-12T08:18:03.030Z,2728.00
2018-11-12T08:19:03.126Z,2800.00
2018-11-12T08:20:03.026Z,2984.00
2018-11-12T08:21:03.012Z,2948.00
2018-11-12T08:22:03.003Z,2884.00
2018-11-12T08:23:02.995Z,2952.00
2018-11-12T08:24:03.000Z,2980.00
2018-11-12T08:25:03.271Z,2968.00
2018-11-12T08:26:02.949Z,2952.00
2018-11-12T08:27:02.935Z,2968.00
2018-11-12T08:28:02.939Z,3084.00
2018-11-12T08:29:02.928Z,3088.00
2018-11-12T08:30:03.114Z,3064.00
2018-11-12T08:31:03.122Z,2936.00
2018-11-12T08:32:02.881Z,2828.00
2018-11-12T08:33:02.937Z,2952.00
2018-11-12T08:34:02.860Z,2908.00
2018-11-12T08:35:02.847Z,2996.00
2018-11-12T08:36:02.858Z,3060.00
2018-11-12T08:37:02.938Z,3108.00
2018-11-12T08:38:02.816Z,3196.00
2018-11-12T08:39:02.867Z,3332.00
2018-11-12T08:40:02.906Z,3408.00
2018-11-12T08:41:02.836Z,3404.00
2018-11-12T08:42:02.786Z,3344.00
2018-11-12T08:43:02.972Z,3348.00
2018-11-12T08:44:02.755Z,3444.00
2018-11-12T08:45:02.751Z,3528.00
2018-11-12T08:46:02.786Z,3624.00
2018-11-12T08:47:02.720Z,3660.00
2018-11-12T08:48:02.719Z,3812.00
2018-11-12T08:49:03.071Z,4000.00
2018-11-12T08:50:02.745Z,4108.00
2018-11-12T08:51:02.676Z,4168.00
2018-11-12T08:52:02.727Z,4276.00
2018-11-12T08:53:02.653Z,4292.00
2018-11-12T08:54:02.644Z,4264.00
2018-11-12T08:55:02.794Z,4416.00
2018-11-12T08:56:02.625Z,4396.00
2018-11-12T08:57:02.613Z,4176.00
2018-11-12T08:58:02.605Z,4108.00
2018-11-12T08:59:02.629Z,5032.00
2018-11-12T09:00:02.597Z,4788.00
2018-11-12T09:01:03.410Z,4468.00
2018-11-12T09:02:02.563Z,4060.00
2018-11-12T09:03:02.565Z,3740.00
2018-11-12T09:04:02.624Z,3308.00
2018-11-12T09:05:02.548Z,2788.00
2018-11-12T09:06:02.562Z,1972.00
2018-11-12T09:07:02.668Z,1888.00
2018-11-12T09:08:02.512Z,1912.00
2018-11-12T09:09:02.511Z,2068.00
2018-11-12T09:10:02.508Z,2280.00
2018-11-12T09:11:02.480Z,2496.00
2018-11-12T09:12:02.470Z,2612.00
2018-11-12T09:13:02.580Z,2688.00
2018-11-12T09:14:02.449Z,2828.00
2018-11-12T09:15:02.441Z,3628.00
2018-11-12T09:16:02.429Z,3836.00
2018-11-12T09:17:02.418Z,4344.00
2018-11-12T09:18:02.405Z,4508.00
2018-11-12T09:19:02.504Z,4184.00
2018-11-12T09:20:02.383Z,3744.00
2018-11-12T09:21:02.374Z,2196.00
2018-11-12T09:22:02.363Z,2112.00
2018-11-12T09:23:02.357Z,2084.00
2018-11-12T09:24:02.372Z,2092.00
2018-11-12T09:25:02.631Z,2060.00
